Big Bear Station Historical Data
Daily Summary for April 17, 2019 Units:  Both    English   Metric
Next Day »
Daily Weekly Monthly Yearly Custom
  High: Low: Average:
Temperature: 67.3 °F /  19.6 °C 34.2 °F /  1.2 °C 47.9 °F /  8.8 °C
Dew Point: 32.9 °F /  0.5 °C 12.1 °F /  -11.1 °C 25.2 °F /  -3.8 °C
Humidity: 86% 13% 47%
Wind Speed: 8.3mph /  13.4km/h - 3.2mph /  5.1km/h
Wind Gust: -999.0mph /  -1607.7km/h - -
Wind- - WSW
Pressure: 23.66 in /  801.1 hPa 23.48 in /  795 hPa -
Precipitation: 0.00 in /  0 mm    
Historical Graphs
 
 
Tabular Data for April 17, 2019
Time Temperature Dew Point Pressure Wind Wind Speed Wind Gust Humidity Rainfall Rate (Hourly)
00:07 34.2 °F /  1.2 °C 30.5 °F /  -0.8 °C 23.48in /  795hPa Calm   -999.0mph /  -1607.7km/h 86% 0.00in /  0mm
00:23 34.5 °F /  1.4 °C 30.5 °F /  -0.8 °C 23.49in /  795.4hPa Calm   -999.0mph /  -1607.7km/h 85% 0.00in /  0mm
00:39 34.3 °F /  1.3 °C 30.3 °F /  -0.9 °C 23.49in /  795.4hPa South 1.7mph /  2.7km/h -999.0mph /  -1607.7km/h 85% 0.00in /  0mm
00:54 36.0 °F /  2.2 °C 31.0 °F /  -0.6 °C 23.50in /  795.7hPa Calm   -999.0mph /  -1607.7km/h 82% 0.00in /  0mm
01:09 37.0 °F /  2.8 °C 31.4 °F /  -0.3 °C 23.50in /  795.7hPa NNW 2.2mph /  3.5km/h -999.0mph /  -1607.7km/h 80% 0.00in /  0mm
01:24 37.4 °F /  3 °C 31.8 °F /  -0.1 °C 23.50in /  795.7hPa NNW 3.2mph /  5.1km/h -999.0mph /  -1607.7km/h 80% 0.00in /  0mm
01:40 37.6 °F /  3.1 °C 32.9 °F /  0.5 °C 23.50in /  795.7hPa NNE 3.7mph /  6km/h -999.0mph /  -1607.7km/h 83% 0.00in /  0mm
01:55 37.4 °F /  3 °C 32.7 °F /  0.4 °C 23.50in /  795.7hPa NNE 2.2mph /  3.5km/h -999.0mph /  -1607.7km/h 83% 0.00in /  0mm
02:10 37.6 °F /  3.1 °C 32.9 °F /  0.5 °C 23.50in /  795.7hPa NNW 3.7mph /  6km/h -999.0mph /  -1607.7km/h 83% 0.00in /  0mm
02:25 37.9 °F /  3.3 °C 32.6 °F /  0.3 °C 23.50in /  795.7hPa North 4.7mph /  7.6km/h -999.0mph /  -1607.7km/h 81% 0.00in /  0mm
02:41 38.1 °F /  3.4 °C 32.2 °F /  0.1 °C 23.50in /  795.7hPa NNW 5.3mph /  8.5km/h -999.0mph /  -1607.7km/h 79% 0.00in /  0mm
02:56 37.9 °F /  3.3 °C 32.0 °F /  0 °C 23.49in /  795.4hPa NNW 6.3mph /  10.1km/h -999.0mph /  -1607.7km/h 79% 0.00in /  0mm
03:11 38.1 °F /  3.4 °C 31.5 °F /  -0.3 °C 23.50in /  795.7hPa NW 4.7mph /  7.6km/h -999.0mph /  -1607.7km/h 77% 0.00in /  0mm
03:26 38.1 °F /  3.4 °C 31.5 °F /  -0.3 °C 23.49in /  795.4hPa North 5.3mph /  8.5km/h -999.0mph /  -1607.7km/h 77% 0.00in /  0mm
03:42 38.1 °F /  3.4 °C 31.5 °F /  -0.3 °C 23.49in /  795.4hPa NNE 5.3mph /  8.5km/h -999.0mph /  -1607.7km/h 77% 0.00in /  0mm
03:57 38.3 °F /  3.5 °C 30.7 °F /  -0.7 °C 23.49in /  795.4hPa NW 6.3mph /  10.1km/h -999.0mph /  -1607.7km/h 74% 0.00in /  0mm
04:13 38.1 °F /  3.4 °C 30.5 °F /  -0.8 °C 23.50in /  795.7hPa NW 7.3mph /  11.7km/h -999.0mph /  -1607.7km/h 74% 0.00in /  0mm
04:28 38.3 °F /  3.5 °C 30.1 °F /  -1.1 °C 23.50in /  795.7hPa NNE 5.3mph /  8.5km/h -999.0mph /  -1607.7km/h 72% 0.00in /  0mm
04:43 38.3 °F /  3.5 °C 29.7 °F /  -1.3 °C 23.49in /  795.4hPa NNW 6.8mph /  10.9km/h -999.0mph /  -1607.7km/h 71% 0.00in /  0mm
04:59 38.8 °F /  3.8 °C 29.1 °F /  -1.6 °C 23.50in /  795.7hPa North 6.8mph /  10.9km/h -999.0mph /  -1607.7km/h 68% 0.00in /  0mm
05:15 38.7 °F /  3.7 °C 27.9 °F /  -2.3 °C 23.50in /  795.7hPa NW 8.3mph /  13.4km/h -999.0mph /  -1607.7km/h 65% 0.00in /  0mm
05:30 38.8 °F /  3.8 °C 27.7 °F /  -2.4 °C 23.51in /  796hPa NNW 5.8mph /  9.3km/h -999.0mph /  -1607.7km/h 64% 0.00in /  0mm
05:45 39.0 °F /  3.9 °C 28.6 °F /  -1.9 °C 23.50in /  795.7hPa NNW 4.2mph /  6.8km/h -999.0mph /  -1607.7km/h 66% 0.00in /  0mm
06:01 38.8 °F /  3.8 °C 28.0 °F /  -2.2 °C 23.51in /  796hPa NW 6.8mph /  10.9km/h -999.0mph /  -1607.7km/h 65% 0.00in /  0mm
06:17 38.8 °F /  3.8 °C 27.7 °F /  -2.4 °C 23.52in /  796.4hPa NNW 4.7mph /  7.6km/h -999.0mph /  -1607.7km/h 64% 0.00in /  0mm
06:32 38.8 °F /  3.8 °C 27.7 °F /  -2.4 °C 23.52in /  796.4hPa NW 5.3mph /  8.5km/h -999.0mph /  -1607.7km/h 64% 0.00in /  0mm
06:47 39.0 °F /  3.9 °C 27.9 °F /  -2.3 °C 23.52in /  796.4hPa SSW 6.3mph /  10.1km/h -999.0mph /  -1607.7km/h 64% 0.00in /  0mm
07:02 39.4 °F /  4.1 °C 27.5 °F /  -2.5 °C 23.53in /  796.7hPa NW 7.3mph /  11.7km/h -999.0mph /  -1607.7km/h 62% 0.00in /  0mm
07:18 39.7 °F /  4.3 °C 27.7 °F /  -2.4 °C 23.54in /  797.1hPa North 1.7mph /  2.7km/h -999.0mph /  -1607.7km/h 62% 0.00in /  0mm
07:33 39.7 °F /  4.3 °C 26.9 °F /  -2.8 °C 23.54in /  797.1hPa SW 3.2mph /  5.1km/h -999.0mph /  -1607.7km/h 60% 0.00in /  0mm
07:48 39.9 °F /  4.4 °C 26.3 °F /  -3.2 °C 23.55in /  797.4hPa NNE 1.7mph /  2.7km/h -999.0mph /  -1607.7km/h 58% 0.00in /  0mm
08:03 40.1 °F /  4.5 °C 25.7 °F /  -3.5 °C 23.55in /  797.4hPa ESE 3.2mph /  5.1km/h -999.0mph /  -1607.7km/h 56% 0.00in /  0mm
08:19 40.8 °F /  4.9 °C 26.3 °F /  -3.2 °C 23.56in /  797.7hPa SSE 3.2mph /  5.1km/h -999.0mph /  -1607.7km/h 56% 0.00in /  0mm
08:34 42.1 °F /  5.6 °C 25.7 °F /  -3.5 °C 23.57in /  798.1hPa SSE 4.7mph /  7.6km/h -999.0mph /  -1607.7km/h 52% 0.00in /  0mm
08:49 43.3 °F /  6.3 °C 25.4 °F /  -3.7 °C 23.57in /  798.1hPa NW 3.2mph /  5.1km/h -999.0mph /  -1607.7km/h 49% 0.00in /  0mm
09:04 44.2 °F /  6.8 °C 25.2 °F /  -3.8 °C 23.58in /  798.4hPa NW 1.7mph /  2.7km/h -999.0mph /  -1607.7km/h 47% 0.00in /  0mm
09:20 44.8 °F /  7.1 °C 25.3 °F /  -3.7 °C 23.58in /  798.4hPa NE 2.7mph /  4.3km/h -999.0mph /  -1607.7km/h 46% 0.00in /  0mm
09:35 45.3 °F /  7.4 °C 24.7 °F /  -4.1 °C 23.59in /  798.8hPa NNW 5.3mph /  8.5km/h -999.0mph /  -1607.7km/h 44% 0.00in /  0mm
09:51 46.4 °F /  8 °C 26.7 °F /  -2.9 °C 23.59in /  798.8hPa North 2.2mph /  3.5km/h -999.0mph /  -1607.7km/h 46% 0.00in /  0mm
10:06 46.8 °F /  8.2 °C 25.5 °F /  -3.6 °C 23.59in /  798.8hPa NW 6.3mph /  10.1km/h -999.0mph /  -1607.7km/h 43% 0.00in /  0mm
10:21 47.5 °F /  8.6 °C 24.4 °F /  -4.2 °C 23.59in /  798.8hPa NNW 2.2mph /  3.5km/h -999.0mph /  -1607.7km/h 40% 0.00in /  0mm
10:37 49.1 °F /  9.5 °C 26.4 °F /  -3.1 °C 23.60in /  799.1hPa NNW 6.3mph /  10.1km/h -999.0mph /  -1607.7km/h 41% 0.00in /  0mm
10:52 50.4 °F /  10.2 °C 25.7 °F /  -3.5 °C 23.60in /  799.1hPa NE 4.2mph /  6.8km/h -999.0mph /  -1607.7km/h 38% 0.00in /  0mm
11:07 52.3 °F /  11.3 °C 24.0 °F /  -4.4 °C 23.60in /  799.1hPa NNW 6.3mph /  10.1km/h -999.0mph /  -1607.7km/h 33% 0.00in /  0mm
11:22 53.2 °F /  11.8 °C 24.1 °F /  -4.4 °C 23.61in /  799.4hPa NNW 4.2mph /  6.8km/h -999.0mph /  -1607.7km/h 32% 0.00in /  0mm
11:37 54.9 °F /  12.7 °C 24.0 °F /  -4.4 °C 23.61in /  799.4hPa West 3.2mph /  5.1km/h -999.0mph /  -1607.7km/h 30% 0.00in /  0mm
11:53 55.8 °F /  13.2 °C 23.2 °F /  -4.9 °C 23.61in /  799.4hPa WNW 4.2mph /  6.8km/h -999.0mph /  -1607.7km/h 28% 0.00in /  0mm
12:08 55.8 °F /  13.2 °C 20.5 °F /  -6.4 °C 23.62in /  799.8hPa SE 1.1mph /  1.8km/h -999.0mph /  -1607.7km/h 25% 0.00in /  0mm
12:23 57.6 °F /  14.2 °C 21.0 °F /  -6.1 °C 23.61in /  799.4hPa NNW 5.8mph /  9.3km/h -999.0mph /  -1607.7km/h 24% 0.00in /  0mm
12:38 57.9 °F /  14.4 °C 22.3 °F /  -5.4 °C 23.61in /  799.4hPa North 5.3mph /  8.5km/h -999.0mph /  -1607.7km/h 25% 0.00in /  0mm
12:54 57.7 °F /  14.3 °C 20.1 °F /  -6.6 °C 23.61in /  799.4hPa NNW 4.7mph /  7.6km/h -999.0mph /  -1607.7km/h 23% 0.00in /  0mm
13:09 59.9 °F /  15.5 °C 20.9 °F /  -6.2 °C 23.61in /  799.4hPa NE 3.2mph /  5.1km/h -999.0mph /  -1607.7km/h 22% 0.00in /  0mm
13:24 60.6 °F /  15.9 °C 19.3 °F /  -7.1 °C 23.61in /  799.4hPa NW 3.2mph /  5.1km/h -999.0mph /  -1607.7km/h 20% 0.00in /  0mm
13:40 61.2 °F /  16.2 °C 19.8 °F /  -6.8 °C 23.61in /  799.4hPa NW 4.2mph /  6.8km/h -999.0mph /  -1607.7km/h 20% 0.00in /  0mm
13:55 64.0 °F /  17.8 °C 22.1 °F /  -5.5 °C 23.60in /  799.1hPa NNW 3.7mph /  6km/h -999.0mph /  -1607.7km/h 20% 0.00in /  0mm
14:11 64.8 °F /  18.2 °C 21.5 °F /  -5.8 °C 23.60in /  799.1hPa North 2.7mph /  4.3km/h -999.0mph /  -1607.7km/h 19% 0.00in /  0mm
14:26 62.8 °F /  17.1 °C 17.3 °F /  -8.2 °C 23.60in /  799.1hPa NE 1.1mph /  1.8km/h -999.0mph /  -1607.7km/h 17% 0.00in /  0mm
14:41 65.1 °F /  18.4 °C 16.3 °F /  -8.7 °C 23.60in /  799.1hPa NNE 2.2mph /  3.5km/h -999.0mph /  -1607.7km/h 15% 0.00in /  0mm
14:56 65.3 °F /  18.5 °C 19.3 °F /  -7.1 °C 23.60in /  799.1hPa NE 3.7mph /  6km/h -999.0mph /  -1607.7km/h 17% 0.00in /  0mm
15:11 64.2 °F /  17.9 °C 15.5 °F /  -9.2 °C 23.60in /  799.1hPa NNW 5.8mph /  9.3km/h -999.0mph /  -1607.7km/h 15% 0.00in /  0mm
15:27 63.0 °F /  17.2 °C 16.1 °F /  -8.8 °C 23.60in /  799.1hPa NNW 4.7mph /  7.6km/h -999.0mph /  -1607.7km/h 16% 0.00in /  0mm
15:42 63.9 °F /  17.7 °C 22.0 °F /  -5.6 °C 23.60in /  799.1hPa North 5.3mph /  8.5km/h -999.0mph /  -1607.7km/h 20% 0.00in /  0mm
15:57 63.1 °F /  17.3 °C 18.9 °F /  -7.3 °C 23.60in /  799.1hPa NNE 2.7mph /  4.3km/h -999.0mph /  -1607.7km/h 18% 0.00in /  0mm
16:12 63.3 °F /  17.4 °C 21.5 °F /  -5.8 °C 23.60in /  799.1hPa NNW 4.2mph /  6.8km/h -999.0mph /  -1607.7km/h 20% 0.00in /  0mm
16:27 63.1 °F /  17.3 °C 16.1 °F /  -8.8 °C 23.60in /  799.1hPa NNW 3.7mph /  6km/h -999.0mph /  -1607.7km/h 16% 0.00in /  0mm
16:43 64.0 °F /  17.8 °C 12.1 °F /  -11.1 °C 23.59in /  798.8hPa North 3.7mph /  6km/h -999.0mph /  -1607.7km/h 13% 0.00in /  0mm
16:58 67.3 °F /  19.6 °C 14.7 °F /  -9.6 °C 23.60in /  799.1hPa Calm   -999.0mph /  -1607.7km/h 13% 0.00in /  0mm
17:14 66.6 °F /  19.2 °C 25.4 °F /  -3.7 °C 23.59in /  798.8hPa NW 2.7mph /  4.3km/h -999.0mph /  -1607.7km/h 21% 0.00in /  0mm
17:29 66.4 °F /  19.1 °C 20.2 °F /  -6.6 °C 23.59in /  798.8hPa NW 4.2mph /  6.8km/h -999.0mph /  -1607.7km/h 17% 0.00in /  0mm
17:44 64.9 °F /  18.3 °C 22.8 °F /  -5.1 °C 23.59in /  798.8hPa NW 5.3mph /  8.5km/h -999.0mph /  -1607.7km/h 20% 0.00in /  0mm
18:00 64.0 °F /  17.8 °C 24.4 °F /  -4.2 °C 23.59in /  798.8hPa NW 4.2mph /  6.8km/h -999.0mph /  -1607.7km/h 22% 0.00in /  0mm
18:15 62.1 °F /  16.7 °C 22.8 °F /  -5.1 °C 23.60in /  799.1hPa NW 4.2mph /  6.8km/h -999.0mph /  -1607.7km/h 22% 0.00in /  0mm
18:30 60.1 °F /  15.6 °C 24.1 °F /  -4.4 °C 23.61in /  799.4hPa NW 4.2mph /  6.8km/h -999.0mph /  -1607.7km/h 25% 0.00in /  0mm
18:45 55.6 °F /  13.1 °C 24.6 °F /  -4.1 °C 23.61in /  799.4hPa NNE 1.7mph /  2.7km/h -999.0mph /  -1607.7km/h 30% 0.00in /  0mm
19:00 53.8 °F /  12.1 °C 23.8 °F /  -4.6 °C 23.61in /  799.4hPa NW 3.2mph /  5.1km/h -999.0mph /  -1607.7km/h 31% 0.00in /  0mm
19:16 52.5 °F /  11.4 °C 25.6 °F /  -3.6 °C 23.62in /  799.8hPa Calm   -999.0mph /  -1607.7km/h 35% 0.00in /  0mm
19:31 51.1 °F /  10.6 °C 25.7 °F /  -3.5 °C 23.62in /  799.8hPa Calm   -999.0mph /  -1607.7km/h 37% 0.00in /  0mm
19:46 49.6 °F /  9.8 °C 24.4 °F /  -4.2 °C 23.62in /  799.8hPa Calm   -999.0mph /  -1607.7km/h 37% 0.00in /  0mm
20:01 48.4 °F /  9.1 °C 23.9 °F /  -4.5 °C 23.62in /  799.8hPa Calm   -999.0mph /  -1607.7km/h 38% 0.00in /  0mm
20:16 46.9 °F /  8.3 °C 25.0 °F /  -3.9 °C 23.63in /  800.1hPa Calm   -999.0mph /  -1607.7km/h 42% 0.00in /  0mm
20:32 45.9 °F /  7.7 °C 23.5 °F /  -4.7 °C 23.63in /  800.1hPa Calm   -999.0mph /  -1607.7km/h 41% 0.00in /  0mm
20:47 44.8 °F /  7.1 °C 23.1 °F /  -4.9 °C 23.64in /  800.5hPa Calm   -999.0mph /  -1607.7km/h 42% 0.00in /  0mm
21:02 44.4 °F /  6.9 °C 26.9 °F /  -2.8 °C 23.64in /  800.5hPa Calm   -999.0mph /  -1607.7km/h 50% 0.00in /  0mm
21:17 44.1 °F /  6.7 °C 25.6 °F /  -3.6 °C 23.65in /  800.8hPa Calm   -999.0mph /  -1607.7km/h 48% 0.00in /  0mm
21:32 43.3 °F /  6.3 °C 25.9 °F /  -3.4 °C 23.66in /  801.1hPa Calm   -999.0mph /  -1607.7km/h 50% 0.00in /  0mm
21:48 42.3 °F /  5.7 °C 25.4 °F /  -3.7 °C 23.66in /  801.1hPa Calm   -999.0mph /  -1607.7km/h 51% 0.00in /  0mm
22:03 41.5 °F /  5.3 °C 24.7 °F /  -4.1 °C 23.66in /  801.1hPa Calm   -999.0mph /  -1607.7km/h 51% 0.00in /  0mm
22:18 41.2 °F /  5.1 °C 25.8 °F /  -3.4 °C 23.66in /  801.1hPa Calm   -999.0mph /  -1607.7km/h 54% 0.00in /  0mm
22:33 40.6 °F /  4.8 °C 24.8 °F /  -4 °C 23.66in /  801.1hPa Calm   -999.0mph /  -1607.7km/h 53% 0.00in /  0mm
22:49 39.7 °F /  4.3 °C 24.8 °F /  -4 °C 23.66in /  801.1hPa Calm   -999.0mph /  -1607.7km/h 55% 0.00in /  0mm
23:04 39.4 °F /  4.1 °C 23.2 °F /  -4.9 °C 23.66in /  801.1hPa Calm   -999.0mph /  -1607.7km/h 52% 0.00in /  0mm
23:19 39.6 °F /  4.2 °C 25.6 °F /  -3.6 °C 23.66in /  801.1hPa SSE 2.2mph /  3.5km/h -999.0mph /  -1607.7km/h 57% 0.00in /  0mm
23:34 39.2 °F /  4 °C 25.7 °F /  -3.5 °C 23.66in /  801.1hPa Calm   -999.0mph /  -1607.7km/h 58% 0.00in /  0mm
23:49 39.7 °F /  4.3 °C 24.4 °F /  -4.2 °C 23.66in /  801.1hPa SSE 2.2mph /  3.5km/h -999.0mph /  -1607.7km/h 54% 0.00in /  0mm
Big Bear CA Weather